»·PEaware :: BADGR13 KYKM-KSEA

BADGR13 :: KYKM-KSEA

FLIGHT INFORMATION

Flight Status: Arrived
Operator: Unknown
More flights by this operator :: More flights under this callsign
Pilot: Abraham G. (22221)
Aircraft: BEECH AIRCRAFT T-6A TEXAN
(TEX2)
More flights by this aircraft type
Origin: KYKM Yakima Air Term/Mcallister
United States
Destination: KSEA Seattle-Tacoma Intl
United States
More flights between these airports :: More routes between these airports
Route: +WENSA7 TITON CHINS CHINS4
File this flight plan on PilotEdge
Remarks:
Altitude:
(Current/Filed)
10,000ft
Speed:
(Current/Filed)
250kts
Departed: 15-Jun-20 07:15 AM
Arrived: 15-Jun-20 08:00 AM
Distance/Time
Traveled:
89nm/0:44
Distance/Time
To Go:
Arrived

Flight Plot

Page will automatically refresh every two minutes.

Flight plan parsing failed; only flown route is shown


Map Options




Map Legend


Flown Route
Filed Route
Departure Airport
Arrival Airport
Navaid (VOR, NDB)
Fix

Horizontal Profiles

Position Reports

Time Latitude Longitude Heading Altitude Ground
Speed
15-Jun-20 06:51 46.571340 -120.547982 195 1076ft 0kts
15-Jun-20 06:52 46.571340 -120.547982 195 1076ft 0kts
15-Jun-20 06:53 46.571340 -120.547982 195 1076ft 0kts
15-Jun-20 06:54 46.571340 -120.547982 195 1076ft 0kts
15-Jun-20 06:55 46.571340 -120.547982 195 1076ft 0kts
15-Jun-20 06:56 46.571340 -120.547982 195 1076ft 0kts
15-Jun-20 06:57 46.571340 -120.547982 195 1076ft 0kts
15-Jun-20 06:58 46.571340 -120.547982 195 1076ft 0kts
15-Jun-20 06:59 46.571340 -120.547982 195 1076ft 0kts
15-Jun-20 07:00 46.571340 -120.547982 195 1076ft 0kts
15-Jun-20 07:01 46.571340 -120.547982 195 1076ft 0kts
15-Jun-20 07:02 46.571340 -120.547982 195 1076ft 0kts
15-Jun-20 07:03 46.571340 -120.547982 195 1076ft 0kts
15-Jun-20 07:04 46.571340 -120.547982 195 1076ft 0kts
15-Jun-20 07:05 46.571340 -120.547982 195 1076ft 0kts
15-Jun-20 07:06 46.571340 -120.547982 195 1076ft 0kts
15-Jun-20 07:07 46.571340 -120.547982 195 1076ft 0kts
15-Jun-20 07:08 46.571340 -120.547982 195 1076ft 0kts
15-Jun-20 07:09 46.571340 -120.547982 195 1076ft 0kts
15-Jun-20 07:10 46.570243 -120.545659 110 1074ft 16kts
15-Jun-20 07:11 46.568010 -120.536725 110 1057ft 25kts
15-Jun-20 07:12 46.566510 -120.531558 173 1047ft 0kts
15-Jun-20 07:13 46.566510 -120.531558 173 1047ft 0kts
15-Jun-20 07:14 46.567032 -120.537538 290 1071ft 97kts
15-Jun-20 07:15 46.564915 -120.552992 74 2805ft 197kts
15-Jun-20 07:16 46.574390 -120.470767 100 4864ft 221kts
15-Jun-20 07:17 46.566961 -120.381091 96 7636ft 224kts
15-Jun-20 07:18 46.560442 -120.289106 93 9658ft 250kts
15-Jun-20 07:19 46.532298 -120.206420 182 9520ft 253kts
15-Jun-20 07:20 46.471002 -120.228894 136 9635ft 265kts
15-Jun-20 07:21 46.428866 -120.139264 123 9656ft 277kts
15-Jun-20 07:22 46.386291 -120.045648 115 9553ft 279kts
15-Jun-20 07:23 46.427332 -119.988802 324 9636ft 278kts
15-Jun-20 07:24 46.437067 -120.098289 275 9830ft 280kts
15-Jun-20 07:25 46.456132 -120.208758 293 9798ft 286kts
15-Jun-20 07:26 46.494781 -120.309213 303 9782ft 286kts
15-Jun-20 07:27 46.545039 -120.399054 311 9726ft 287kts
15-Jun-20 07:28 46.593157 -120.492134 303 9669ft 287kts
15-Jun-20 07:29 46.638948 -120.586906 305 9742ft 285kts
15-Jun-20 07:30 46.686141 -120.681171 303 9706ft 287kts
15-Jun-20 07:31 46.728497 -120.779863 300 9757ft 283kts
15-Jun-20 07:32 46.770296 -120.878553 301 9858ft 287kts
15-Jun-20 07:33 46.811061 -120.976921 300 10190ft 284kts
15-Jun-20 07:34 46.853250 -121.077231 302 9958ft 287kts
15-Jun-20 07:35 46.898621 -121.172254 308 10053ft 286kts
15-Jun-20 07:36 46.949076 -121.262159 308 10215ft 284kts
15-Jun-20 07:37 46.990441 -121.361581 300 10036ft 290kts
15-Jun-20 07:38 47.033260 -121.460353 304 10043ft 288kts
15-Jun-20 07:39 47.077108 -121.558117 301 10054ft 289kts
15-Jun-20 07:40 47.117684 -121.659725 303 10142ft 285kts
15-Jun-20 07:41 47.163489 -121.757366 302 9956ft 289kts
15-Jun-20 07:42 47.210154 -121.857130 304 9891ft 290kts
15-Jun-20 07:43 47.260431 -121.955073 308 10002ft 285kts
15-Jun-20 07:44 47.310648 -122.050835 307 10052ft 285kts
15-Jun-20 07:45 47.360231 -122.144396 307 9990ft 287kts
15-Jun-20 07:46 47.406855 -122.239805 301 10091ft 284kts
15-Jun-20 07:47 47.473841 -122.239672 30 8530ft 283kts
15-Jun-20 07:48 47.541192 -122.176232 32 5411ft 285kts
15-Jun-20 07:49 47.600356 -122.120072 27 3915ft 224kts
15-Jun-20 07:50 47.648471 -122.149624 311 3941ft 202kts
15-Jun-20 07:51 47.690478 -122.209181 316 3975ft 212kts
15-Jun-20 07:52 47.730485 -122.269532 257 3932ft 202kts
15-Jun-20 07:53 47.679537 -122.298531 219 3994ft 216kts
15-Jun-20 07:54 47.619345 -122.307637 184 3892ft 213kts
15-Jun-20 07:55 47.567401 -122.307278 185 2528ft 160kts
15-Jun-20 07:56 47.533059 -122.308466 177 1745ft 113kts
15-Jun-20 07:57 47.503071 -122.307388 181 1282ft 106kts
15-Jun-20 07:58 47.474035 -122.307792 178 692ft 105kts
15-Jun-20 07:59 47.455732 -122.307226 118 427ft 11kts
15-Jun-20 08:00 47.454557 -122.306218 180 426ft 16kts
15-Jun-20 08:01 47.451333 -122.304500 64 412ft 11kts

Navigation Log

Ident Type
Flight plan parsing failed, navigation log unavailable